createdAt,value
2022-11-28T00:06:50.229Z,91645.71
2022-11-28T00:15:13.316Z,91638.55
2022-11-28T00:23:35.975Z,91626.25
2022-11-28T00:31:57.455Z,91636.30
2022-11-28T00:40:18.923Z,91634.34
2022-11-28T00:48:40.868Z,91624.02
2022-11-28T00:57:02.434Z,91646.84
2022-11-28T01:05:24.181Z,91644.31
2022-11-28T01:13:46.351Z,91638.18
2022-11-28T01:22:07.895Z,91612.08
2022-11-28T01:30:29.565Z,91591.04
2022-11-28T01:38:51.549Z,91600.73
2022-11-28T01:47:17.319Z,91597.45
2022-11-28T01:55:57.315Z,91600.58
2022-11-28T02:04:20.089Z,91623.77
2022-11-28T02:13:16.479Z,91607.27
2022-11-28T02:21:41.315Z,91601.91
2022-11-28T02:30:22.370Z,91578.84
2022-11-28T02:38:47.059Z,91552.70
2022-11-28T02:47:23.224Z,91514.23
2022-11-28T02:55:45.221Z,91493.54
2022-11-28T03:04:23.017Z,91490.65
2022-11-28T03:12:53.873Z,91499.73
2022-11-28T03:21:25.162Z,91528.39
2022-11-28T03:29:51.831Z,91542.43
2022-11-28T03:38:21.037Z,91515.33
2022-11-28T03:46:46.210Z,91515.52
2022-11-28T03:55:17.569Z,91504.44
2022-11-28T04:03:45.060Z,91465.73
2022-11-28T04:12:21.252Z,91475.89
2022-11-28T04:20:51.643Z,91496.86
2022-11-28T04:29:16.445Z,91511.06
2022-11-28T04:37:41.520Z,91528.84
2022-11-28T04:46:34.135Z,91539.12
2022-11-28T04:55:34.486Z,91523.88
2022-11-28T05:03:56.429Z,91492.50
2022-11-28T05:12:17.997Z,91493.84
2022-11-28T05:20:40.420Z,91495.39
2022-11-28T05:29:02.379Z,91463.17
2022-11-28T05:37:24.907Z,91451.05
2022-11-28T05:45:46.360Z,91435.30
2022-11-28T05:54:08.124Z,91417.62
2022-11-28T06:02:29.834Z,91414.56
2022-11-28T06:10:56.856Z,91403.48
2022-11-28T06:19:18.319Z,91386.91
2022-11-28T06:27:39.950Z,91390.41
2022-11-28T06:36:03.739Z,91416.58
2022-11-28T06:44:25.257Z,91423.16
2022-11-28T06:52:46.830Z,91439.02
2022-11-28T07:01:14.345Z,91465.75
2022-11-28T07:09:35.956Z,91488.96
2022-11-28T07:17:57.410Z,91514.58
2022-11-28T07:26:20.860Z,91560.83
2022-11-28T07:34:44.584Z,91608.91
2022-11-28T07:43:08.316Z,91620.30
2022-11-28T07:51:32.630Z,91588.04
2022-11-28T07:59:54.073Z,91574.25
2022-11-28T08:08:16.743Z,91600.08
2022-11-28T08:16:40.683Z,91622.79
2022-11-28T08:25:02.311Z,91644.90
2022-11-28T08:33:24.088Z,91685.73
2022-11-28T08:41:45.616Z,91735.80
2022-11-28T08:51:01.952Z,91774.64
2022-11-28T08:59:24.147Z,91763.43
2022-11-28T09:07:45.957Z,91751.70
2022-11-28T09:16:09.397Z,91727.16
2022-11-28T09:24:31.674Z,91714.01
2022-11-28T09:42:56.329Z,91787.59
2022-11-28T09:51:29.092Z,91810.20
2022-11-28T09:59:51.521Z,91824.23
2022-11-28T10:08:29.701Z,91847.45
2022-11-28T10:17:01.656Z,91861.22
2022-11-28T10:25:48.697Z,91872.55
2022-11-28T10:34:40.019Z,91881.95
2022-11-28T10:43:10.865Z,91895.48
2022-11-28T10:51:51.259Z,91925.31
2022-11-28T11:00:19.578Z,91961.65
2022-11-28T11:08:41.643Z,91987.17
2022-11-28T11:17:03.544Z,91984.74
2022-11-28T11:25:29.007Z,92015.98
2022-11-28T11:34:00.762Z,92051.03
2022-11-28T11:42:26.082Z,92051.27
2022-11-28T11:50:55.355Z,92065.06
2022-11-28T11:59:38.265Z,92080.93
2022-11-28T12:08:10.245Z,92090.27
2022-11-28T12:17:14.332Z,92107.59
2022-11-28T12:26:03.152Z,92129.98
2022-11-28T12:34:44.253Z,92134.00
2022-11-28T12:43:33.368Z,92142.11
2022-11-28T12:52:27.996Z,92120.08
2022-11-28T13:01:15.872Z,92118.92
2022-11-28T13:09:59.546Z,92099.06
2022-11-28T13:18:40.963Z,92088.58
2022-11-28T13:27:15.630Z,92071.67
2022-11-28T13:35:43.334Z,92049.50
2022-11-28T13:44:15.584Z,92050.13
2022-11-28T13:52:43.951Z,92060.02
2022-11-28T14:01:13.704Z,92050.63
2022-11-28T14:09:53.269Z,92051.03
2022-11-28T14:18:56.741Z,92040.35
2022-11-28T14:27:22.538Z,92022.42
2022-11-28T14:35:54.018Z,92021.44
2022-11-28T14:44:47.510Z,91994.48
2022-11-28T14:53:35.477Z,91965.63
2022-11-28T15:02:00.140Z,91921.98
2022-11-28T15:10:31.820Z,91888.83
2022-11-28T15:19:05.650Z,91837.61
2022-11-28T15:27:28.112Z,91804.25
2022-11-28T15:36:11.484Z,91782.86
2022-11-28T15:44:37.325Z,91752.77
2022-11-28T15:53:02.808Z,91745.38
2022-11-28T16:01:28.587Z,91717.25
2022-11-28T16:10:03.013Z,91651.67
2022-11-28T16:30:29.593Z,91490.65
2022-11-28T16:39:05.389Z,91408.25
2022-11-28T16:47:33.387Z,91331.48
2022-11-28T16:55:57.318Z,91275.64
2022-11-28T17:04:26.245Z,91247.23
2022-11-28T17:12:49.785Z,91202.84
2022-11-28T17:21:13.679Z,91148.38
2022-11-28T17:29:36.885Z,91110.95
2022-11-28T17:37:59.911Z,91073.92
2022-11-28T17:46:23.101Z,91065.44
2022-11-28T17:54:46.298Z,91061.55
2022-11-28T18:03:09.556Z,91066.57
2022-11-28T18:11:35.964Z,91082.50
2022-11-28T18:19:59.249Z,91076.90
2022-11-28T18:28:23.006Z,91071.69
2022-11-28T18:36:46.325Z,91070.86
2022-11-28T18:45:11.456Z,91051.62
2022-11-28T18:53:34.825Z,91051.69
2022-11-28T19:01:58.945Z,91057.54
2022-11-28T19:17:06.061Z,91101.28
2022-11-28T19:25:29.281Z,91113.38
2022-11-28T19:34:02.829Z,91132.60
2022-11-28T19:42:27.988Z,91131.98
2022-11-28T19:50:52.044Z,91119.31
2022-11-28T19:59:15.317Z,91087.46
2022-11-28T20:07:39.843Z,91055.50
2022-11-28T20:16:05.620Z,91052.55
2022-11-28T20:24:30.552Z,91043.94
2022-11-28T20:32:54.865Z,91052.45
2022-11-28T20:41:21.063Z,91049.30
2022-11-28T20:49:44.537Z,91048.27
2022-11-28T20:58:11.114Z,91044.40
2022-11-28T21:17:45.352Z,91062.98
2022-11-28T21:26:20.698Z,91072.31
2022-11-28T21:53:25.821Z,91143.29
2022-11-28T22:01:51.917Z,91173.41
2022-11-28T22:10:16.121Z,91141.04
2022-11-28T22:18:40.704Z,91116.80
2022-11-28T22:27:05.034Z,91103.65
2022-11-28T22:35:31.244Z,91090.16
2022-11-28T22:44:00.705Z,91072.12
2022-11-28T22:52:24.566Z,91061.25
2022-11-28T23:00:47.732Z,91058.42
2022-11-28T23:09:14.156Z,91055.05
2022-11-28T23:17:38.057Z,91057.70
2022-11-28T23:26:07.947Z,91069.42
2022-11-28T23:34:31.006Z,91069.38
2022-11-28T23:42:55.482Z,91062.61
2022-11-28T23:51:20.567Z,91062.14
2022-11-28T23:59:43.750Z,91070.05
